createdAt,value
2017-11-24T00:00:27.185Z,2.21
2017-11-24T00:02:56.807Z,2.18
2017-11-24T00:05:26.613Z,2.14
2017-11-24T00:07:56.345Z,2.15
2017-11-24T00:10:26.126Z,2.14
2017-11-24T00:12:55.830Z,2.13
2017-11-24T00:15:25.749Z,2.05
2017-11-24T00:17:55.758Z,2.06
2017-11-24T00:20:25.440Z,1.95
2017-11-24T00:22:55.171Z,1.85
2017-11-24T00:25:25.115Z,1.73
2017-11-24T00:27:54.966Z,1.63
2017-11-24T00:30:24.643Z,1.55
2017-11-24T00:32:54.740Z,1.52
2017-11-24T00:35:24.686Z,1.47
2017-11-24T00:37:55.266Z,1.38
2017-11-24T00:40:25.132Z,1.30
2017-11-24T00:42:54.974Z,1.27
2017-11-24T00:45:24.790Z,1.36
2017-11-24T00:47:54.870Z,1.23
2017-11-24T00:50:24.728Z,1.19
2017-11-24T00:52:54.669Z,1.24
2017-11-24T00:55:24.487Z,1.42
2017-11-24T00:57:54.324Z,1.42
2017-11-24T01:00:24.152Z,1.40
2017-11-24T01:02:53.882Z,1.35
2017-11-24T01:05:23.990Z,1.26
2017-11-24T01:07:53.718Z,1.19
2017-11-24T01:10:23.594Z,1.16
2017-11-24T01:12:53.493Z,1.11
2017-11-24T01:15:22.952Z,1.07
2017-11-24T01:17:52.646Z,0.94
2017-11-24T01:20:22.492Z,0.85
2017-11-24T01:22:52.344Z,0.80
2017-11-24T01:25:22.227Z,0.81
2017-11-24T01:27:52.015Z,0.92
2017-11-24T01:30:21.846Z,0.87
2017-11-24T01:32:51.684Z,0.86
2017-11-24T01:35:21.586Z,0.77
2017-11-24T01:37:51.663Z,0.69
2017-11-24T01:40:21.587Z,0.58
2017-11-24T01:42:51.450Z,0.53
2017-11-24T01:45:21.313Z,0.57
2017-11-24T01:47:51.440Z,0.53
2017-11-24T01:50:21.252Z,0.50
2017-11-24T01:52:51.126Z,0.49
2017-11-24T01:55:21.014Z,0.46
2017-11-24T01:57:50.817Z,0.40
2017-11-24T02:00:20.124Z,0.46
2017-11-24T02:02:49.843Z,0.45
2017-11-24T02:05:19.765Z,0.46
2017-11-24T02:07:49.640Z,0.43
2017-11-24T02:10:19.479Z,0.39
2017-11-24T02:12:49.372Z,0.38
2017-11-24T02:15:19.312Z,0.46
2017-11-24T02:17:49.282Z,0.36
2017-11-24T02:20:18.834Z,0.32
2017-11-24T02:22:48.395Z,0.33
2017-11-24T02:25:18.315Z,0.22
2017-11-24T02:27:48.011Z,0.14
2017-11-24T02:30:17.596Z,0.14
2017-11-24T02:32:47.292Z,0.13
2017-11-24T02:35:17.148Z,0.05
2017-11-24T02:37:46.705Z,0.04
2017-11-24T02:40:16.518Z,0.01
2017-11-24T02:42:46.545Z,0.00
2017-11-24T02:45:16.176Z,0.05
2017-11-24T02:47:46.109Z,0.17
2017-11-24T02:50:15.503Z,0.22
2017-11-24T02:52:45.478Z,0.20
2017-11-24T02:55:15.096Z,0.32
2017-11-24T02:57:44.651Z,0.33
2017-11-24T03:00:14.501Z,0.35
2017-11-24T03:02:44.501Z,0.23
2017-11-24T03:05:14.343Z,0.15
2017-11-24T03:07:43.841Z,0.16
2017-11-24T03:10:13.718Z,0.14
2017-11-24T03:12:43.300Z,0.02
2017-11-24T03:15:13.162Z,-0.07
2017-11-24T03:17:42.883Z,-0.16
2017-11-24T03:20:12.618Z,-0.18
2017-11-24T03:22:42.554Z,-0.24
2017-11-24T03:25:12.518Z,-0.27
2017-11-24T03:27:42.088Z,-0.32
2017-11-24T03:30:11.981Z,-0.36
2017-11-24T03:32:41.828Z,-0.36
2017-11-24T03:35:11.641Z,-0.34
2017-11-24T03:37:41.574Z,-0.10
2017-11-24T03:40:11.174Z,-0.03
2017-11-24T03:42:40.974Z,0.06
2017-11-24T03:45:10.877Z,0.11
2017-11-24T03:47:40.791Z,0.22
2017-11-24T03:50:10.722Z,0.33
2017-11-24T03:52:41.824Z,0.37
2017-11-24T03:55:11.685Z,0.43
2017-11-24T03:57:41.563Z,0.44
2017-11-24T04:00:11.149Z,0.51
2017-11-24T04:02:41.201Z,0.60
2017-11-24T04:05:11.322Z,0.66
2017-11-24T04:07:41.461Z,0.58
2017-11-24T04:10:11.428Z,0.57
2017-11-24T04:12:45.203Z,0.54
2017-11-24T04:15:15.915Z,0.51
2017-11-24T04:17:45.760Z,0.56
2017-11-24T04:20:15.231Z,0.48
2017-11-24T04:22:45.665Z,0.49
2017-11-24T04:25:15.757Z,0.53
2017-11-24T04:27:45.685Z,0.62
2017-11-24T04:30:15.549Z,0.67
2017-11-24T04:32:45.507Z,0.78
2017-11-24T04:35:15.475Z,0.72
2017-11-24T04:37:45.361Z,0.66
2017-11-24T04:40:14.964Z,0.58
2017-11-24T04:42:44.455Z,0.56
2017-11-24T04:45:14.437Z,0.51
2017-11-24T04:47:44.677Z,0.51
2017-11-24T04:50:14.568Z,0.49
2017-11-24T04:52:44.443Z,0.42
2017-11-24T04:55:14.333Z,0.38
2017-11-24T04:57:44.273Z,0.41
2017-11-24T05:00:14.470Z,0.28
2017-11-24T05:05:18.186Z,0.04
2017-11-24T05:07:47.925Z,-0.04
2017-11-24T05:10:18.870Z,-0.10
2017-11-24T05:12:48.733Z,-0.13
2017-11-24T05:15:18.871Z,-0.15
2017-11-24T05:17:48.843Z,-0.15
2017-11-24T05:20:18.723Z,-0.20
2017-11-24T05:22:48.558Z,-0.23
2017-11-24T05:25:18.500Z,-0.16
2017-11-24T05:27:48.359Z,-0.16
2017-11-24T05:30:18.428Z,-0.04
2017-11-24T05:32:48.590Z,0.21
2017-11-24T05:35:19.008Z,0.12
2017-11-24T05:37:48.984Z,0.12
2017-11-24T05:40:18.977Z,0.05
2017-11-24T05:42:48.865Z,-0.07
2017-11-24T05:45:18.795Z,-0.11
2017-11-24T05:47:48.687Z,-0.03
2017-11-24T05:50:18.720Z,-0.04
2017-11-24T05:52:48.760Z,-0.05
2017-11-24T05:55:18.566Z,-0.05
2017-11-24T05:57:48.631Z,0.02
2017-11-24T06:00:18.358Z,0.04
2017-11-24T06:02:48.599Z,-0.08
2017-11-24T06:05:18.187Z,0.05
2017-11-24T06:07:48.193Z,0.09
2017-11-24T06:10:19.304Z,0.19
2017-11-24T06:12:50.345Z,0.33
2017-11-24T06:15:20.032Z,0.47
2017-11-24T06:17:49.953Z,0.61
2017-11-24T06:20:23.561Z,0.73
2017-11-24T06:22:56.869Z,0.79
2017-11-24T06:30:52.213Z,1.03
2017-11-24T06:33:22.052Z,1.20
2017-11-24T06:35:51.910Z,1.20
2017-11-24T06:38:22.747Z,1.22
2017-11-24T06:40:52.687Z,1.26
2017-11-24T06:43:22.605Z,1.32
2017-11-24T06:45:53.032Z,1.37
2017-11-24T06:48:23.616Z,1.35
2017-11-24T06:50:53.722Z,1.38
2017-11-24T06:53:24.624Z,1.43
2017-11-24T06:55:54.493Z,1.36
2017-11-24T06:58:25.149Z,1.38
2017-11-24T07:00:55.109Z,1.40
2017-11-24T07:03:25.043Z,1.42
2017-11-24T07:05:55.083Z,1.48
2017-11-24T07:08:28.456Z,1.53
2017-11-24T07:13:42.936Z,1.66
2017-11-24T07:21:30.928Z,1.70
2017-11-24T07:24:07.069Z,1.64
2017-11-24T07:26:37.128Z,1.72
2017-11-24T07:29:07.864Z,1.89
2017-11-24T07:31:47.656Z,2.05
2017-11-24T07:34:17.392Z,1.98
2017-11-24T07:39:22.042Z,2.39
2017-11-24T07:41:51.860Z,2.31
2017-11-24T07:44:24.965Z,2.36
2017-11-24T07:46:54.925Z,2.53
2017-11-24T07:49:26.641Z,2.50
2017-11-24T07:51:58.759Z,2.58
2017-11-24T07:54:30.825Z,2.56
2017-11-24T07:57:03.922Z,2.49
2017-11-24T07:59:38.839Z,2.34
2017-11-24T08:02:09.466Z,2.62
2017-11-24T08:04:41.117Z,2.52
2017-11-24T08:07:13.612Z,2.59
2017-11-24T08:12:27.042Z,2.82
2017-11-24T08:14:57.966Z,2.89
2017-11-24T08:17:30.761Z,2.88
2017-11-24T08:20:01.452Z,3.05
2017-11-24T08:22:31.456Z,3.28
2017-11-24T08:25:01.504Z,3.46
2017-11-24T08:30:07.903Z,3.62
2017-11-24T08:32:37.863Z,3.97
2017-11-24T08:35:07.820Z,4.07
2017-11-24T08:37:38.031Z,4.38
2017-11-24T08:40:08.103Z,4.33
2017-11-24T08:42:41.463Z,4.68
2017-11-24T08:45:12.901Z,4.59
2017-11-24T08:47:48.112Z,4.57
2017-11-24T08:50:17.729Z,4.46
2017-11-24T08:52:47.736Z,4.77
2017-11-24T08:55:17.611Z,4.70
2017-11-24T08:57:47.525Z,4.63
2017-11-24T09:00:17.374Z,5.29
2017-11-24T09:02:47.638Z,5.88
2017-11-24T09:05:17.661Z,5.90
2017-11-24T09:07:47.789Z,6.49
2017-11-24T09:10:17.676Z,6.81
2017-11-24T09:12:47.571Z,7.79
2017-11-24T09:15:17.493Z,8.38
2017-11-24T09:17:47.258Z,8.65
2017-11-24T09:20:17.639Z,9.21
2017-11-24T09:22:47.257Z,9.97
2017-11-24T09:25:17.178Z,10.99
2017-11-24T09:27:47.137Z,11.35
2017-11-24T09:30:16.982Z,12.57
2017-11-24T09:32:46.751Z,12.91
2017-11-24T09:35:16.615Z,14.04
2017-11-24T09:37:47.138Z,13.90
2017-11-24T09:40:18.435Z,15.02
2017-11-24T09:42:48.382Z,16.01
2017-11-24T09:52:25.148Z,15.56
2017-11-24T09:54:55.126Z,14.36
2017-11-24T09:57:24.528Z,15.17
2017-11-24T09:59:54.136Z,15.59
2017-11-24T10:02:23.768Z,16.40
2017-11-24T10:04:55.008Z,15.91
2017-11-24T10:07:25.400Z,15.37
2017-11-24T10:09:56.735Z,17.42
2017-11-24T10:12:26.622Z,19.20
2017-11-24T10:14:56.191Z,16.66
2017-11-24T10:17:25.819Z,18.78
2017-11-24T10:19:55.758Z,18.15
2017-11-24T10:22:31.155Z,20.58
2017-11-24T10:25:01.898Z,21.15
2017-11-24T10:27:31.935Z,18.45
2017-11-24T10:30:01.702Z,21.26
2017-11-24T10:32:31.120Z,20.86
2017-11-24T10:35:05.144Z,21.90
2017-11-24T10:37:35.783Z,18.73
2017-11-24T10:40:05.311Z,19.85
2017-11-24T10:42:38.034Z,16.21
2017-11-24T10:45:13.904Z,17.84
2017-11-24T10:47:46.164Z,22.79
2017-11-24T10:50:15.587Z,24.24
2017-11-24T10:52:50.147Z,21.91
2017-11-24T10:55:19.827Z,24.76
2017-11-24T10:57:49.918Z,24.24
2017-11-24T11:00:21.965Z,24.87
2017-11-24T11:02:51.517Z,26.11
2017-11-24T11:05:21.972Z,27.05
2017-11-24T11:07:51.617Z,24.12
2017-11-24T11:10:21.704Z,26.65
2017-11-24T11:12:51.652Z,22.39
2017-11-24T11:15:21.407Z,24.47
2017-11-24T11:17:51.296Z,21.25
2017-11-24T11:20:20.697Z,17.64
2017-11-24T11:22:50.184Z,15.72
2017-11-24T11:25:19.686Z,18.22
2017-11-24T11:27:49.166Z,18.48
2017-11-24T11:30:18.430Z,17.50
2017-11-24T11:32:47.510Z,17.60
2017-11-24T11:35:16.777Z,19.59
2017-11-24T11:37:46.344Z,19.77
2017-11-24T11:40:15.607Z,19.26
2017-11-24T11:42:45.161Z,19.38
2017-11-24T11:45:14.623Z,18.67
2017-11-24T11:47:44.081Z,18.62
2017-11-24T11:50:13.561Z,14.07
2017-11-24T11:52:43.122Z,13.47
2017-11-24T11:55:12.784Z,15.76
2017-11-24T11:57:43.772Z,17.16
2017-11-24T12:00:13.545Z,16.01
2017-11-24T12:02:42.960Z,21.95
2017-11-24T12:05:13.821Z,21.74
2017-11-24T12:07:56.980Z,21.71
2017-11-24T12:10:34.710Z,18.46
2017-11-24T12:13:06.463Z,21.49
2017-11-24T12:15:37.574Z,23.14
2017-11-24T12:18:11.151Z,22.79
2017-11-24T12:20:40.923Z,21.39
2017-11-24T12:23:10.658Z,23.00
2017-11-24T12:25:42.069Z,21.47
2017-11-24T12:30:52.625Z,17.59
2017-11-24T12:33:28.090Z,17.94
2017-11-24T12:35:57.968Z,15.88
2017-11-24T12:38:28.289Z,14.48
2017-11-24T12:40:57.948Z,11.72
2017-11-24T12:43:28.014Z,12.36
2017-11-24T12:51:12.448Z,13.79
2017-11-24T12:56:18.848Z,15.52
2017-11-24T12:58:50.252Z,15.19
2017-11-24T13:01:23.365Z,12.68
2017-11-24T13:03:55.132Z,13.35
2017-11-24T13:06:27.526Z,12.64
2017-11-24T13:08:58.698Z,13.79
2017-11-24T13:14:08.660Z,10.87
2017-11-24T13:16:43.166Z,13.61
2017-11-24T13:19:14.357Z,13.97
2017-11-24T13:21:44.504Z,14.61
2017-11-24T13:26:52.306Z,12.50
2017-11-24T13:29:27.312Z,13.01
2017-11-24T13:34:32.327Z,14.44
2017-11-24T13:37:04.015Z,11.37
2017-11-24T13:39:37.708Z,13.14
2017-11-24T13:47:40.391Z,11.16
2017-11-24T13:50:10.144Z,12.23
2017-11-24T13:52:40.016Z,11.71
2017-11-24T13:55:10.162Z,9.69
2017-11-24T13:57:40.070Z,9.47
2017-11-24T14:00:10.313Z,8.30
2017-11-24T14:02:40.138Z,8.42
2017-11-24T14:05:13.907Z,9.74
2017-11-24T14:07:44.681Z,8.61
2017-11-24T14:10:15.484Z,9.57
2017-11-24T14:12:45.081Z,9.33
2017-11-24T14:15:14.883Z,8.78
2017-11-24T14:17:44.634Z,9.59
2017-11-24T14:20:14.481Z,9.71
2017-11-24T14:22:44.339Z,10.05
2017-11-24T14:25:14.208Z,8.74
2017-11-24T14:27:44.093Z,8.31
2017-11-24T14:30:13.924Z,7.35
2017-11-24T14:32:43.698Z,6.91
2017-11-24T14:35:13.553Z,6.48
2017-11-24T14:37:43.417Z,6.49
2017-11-24T14:40:13.386Z,6.43
2017-11-24T14:42:43.274Z,5.92
2017-11-24T14:45:13.327Z,5.67
2017-11-24T14:47:43.169Z,5.65
2017-11-24T14:50:13.293Z,5.93
2017-11-24T14:52:43.165Z,5.87
2017-11-24T14:55:12.973Z,5.30
2017-11-24T14:57:42.962Z,5.11
2017-11-24T15:00:12.781Z,4.75
2017-11-24T15:02:42.536Z,4.62
2017-11-24T15:05:12.281Z,4.61
2017-11-24T15:07:42.228Z,4.45
2017-11-24T15:10:12.011Z,4.44
2017-11-24T15:12:41.814Z,4.20
2017-11-24T15:15:11.783Z,4.05
2017-11-24T15:17:41.544Z,4.02
2017-11-24T15:20:11.315Z,3.88
2017-11-24T15:22:41.172Z,3.76
2017-11-24T15:25:11.081Z,3.66
2017-11-24T15:27:42.354Z,3.56
2017-11-24T15:30:11.867Z,3.53
2017-11-24T15:32:41.655Z,3.45
2017-11-24T15:35:12.513Z,3.39
2017-11-24T15:37:43.370Z,3.38
2017-11-24T15:40:13.270Z,3.42
2017-11-24T15:42:43.739Z,3.32
2017-11-24T15:45:13.522Z,3.32
2017-11-24T15:47:43.300Z,3.25
2017-11-24T15:50:13.113Z,3.13
2017-11-24T15:52:43.476Z,3.08
2017-11-24T15:55:13.055Z,3.04
2017-11-24T15:57:42.787Z,2.98
2017-11-24T16:00:12.568Z,3.09
2017-11-24T16:02:42.316Z,3.14
2017-11-24T16:05:12.109Z,3.15
2017-11-24T16:07:41.834Z,3.25
2017-11-24T16:10:11.425Z,3.20
2017-11-24T16:12:41.153Z,3.13
2017-11-24T16:15:10.888Z,3.14
2017-11-24T16:17:40.634Z,3.24
2017-11-24T16:20:10.395Z,3.15
2017-11-24T16:22:40.109Z,3.18
2017-11-24T16:25:09.663Z,3.27
2017-11-24T16:27:39.427Z,3.28
2017-11-24T16:30:09.162Z,3.24
2017-11-24T16:32:39.059Z,3.14
2017-11-24T16:35:08.792Z,3.08
2017-11-24T16:37:38.862Z,3.12
2017-11-24T16:40:08.640Z,3.10
2017-11-24T16:42:38.382Z,3.16
2017-11-24T16:45:08.283Z,3.31
2017-11-24T16:47:38.128Z,3.43
2017-11-24T16:50:07.892Z,3.54
2017-11-24T16:52:37.721Z,3.63
2017-11-24T16:55:07.454Z,3.64
2017-11-24T16:57:37.173Z,3.69
2017-11-24T17:00:10.803Z,3.77
2017-11-24T17:02:40.346Z,3.77
2017-11-24T17:05:10.087Z,3.67
2017-11-24T17:07:39.813Z,3.58
2017-11-24T17:10:09.221Z,3.53
2017-11-24T17:12:38.942Z,3.63
2017-11-24T17:15:10.385Z,3.65
2017-11-24T17:17:40.169Z,3.67
2017-11-24T17:20:09.948Z,3.74
2017-11-24T17:22:39.711Z,3.93
2017-11-24T17:25:09.202Z,4.01
2017-11-24T17:27:38.998Z,4.00
2017-11-24T17:30:08.716Z,3.97
2017-11-24T17:32:38.539Z,3.93
2017-11-24T17:35:08.330Z,3.91
2017-11-24T17:37:38.094Z,3.78
2017-11-24T17:40:07.799Z,3.73
2017-11-24T17:42:37.396Z,3.63
2017-11-24T17:45:07.112Z,3.63
2017-11-24T17:47:37.044Z,3.73
2017-11-24T17:50:06.930Z,3.76
2017-11-24T17:52:37.190Z,3.74
2017-11-24T17:55:06.990Z,3.80
2017-11-24T17:57:36.711Z,3.80
2017-11-24T18:00:06.200Z,3.68
2017-11-24T18:02:35.770Z,3.72
2017-11-24T18:05:05.554Z,3.71
2017-11-24T18:07:35.085Z,3.66
2017-11-24T18:10:04.835Z,3.62
2017-11-24T18:12:34.096Z,3.63
2017-11-24T18:15:03.910Z,3.54
2017-11-24T18:17:33.745Z,3.69
2017-11-24T18:20:03.487Z,3.63
2017-11-24T18:22:32.858Z,3.58
2017-11-24T18:25:02.630Z,3.65
2017-11-24T18:27:32.548Z,3.68
2017-11-24T18:30:02.268Z,3.62
2017-11-24T18:32:32.201Z,3.75
2017-11-24T18:35:01.937Z,3.71
2017-11-24T18:37:31.663Z,3.61
2017-11-24T18:40:01.429Z,3.50
2017-11-24T18:42:30.652Z,3.60
2017-11-24T18:45:00.940Z,3.64
2017-11-24T18:47:30.548Z,3.66
2017-11-24T18:50:00.415Z,3.74
2017-11-24T18:52:30.203Z,3.70
2017-11-24T18:54:59.987Z,3.93
2017-11-24T18:57:29.726Z,3.88
2017-11-24T18:59:59.543Z,3.91
2017-11-24T19:02:29.353Z,3.94
2017-11-24T19:04:59.137Z,3.93
2017-11-24T19:07:28.866Z,3.92
2017-11-24T19:09:59.038Z,3.91
2017-11-24T19:12:28.620Z,3.90
2017-11-24T19:14:58.397Z,3.88
2017-11-24T19:17:28.151Z,3.86
2017-11-24T19:19:57.923Z,3.91
2017-11-24T19:22:27.700Z,3.95
2017-11-24T19:24:57.483Z,4.00
2017-11-24T19:27:26.742Z,3.89
2017-11-24T19:29:56.479Z,3.94
2017-11-24T19:32:25.904Z,3.96
2017-11-24T19:34:55.463Z,3.91
2017-11-24T19:37:24.890Z,3.97
2017-11-24T19:39:54.622Z,3.91
2017-11-24T19:42:24.383Z,3.92
2017-11-24T19:44:54.211Z,3.87
2017-11-24T19:47:24.066Z,3.97
2017-11-24T19:49:53.828Z,4.09
2017-11-24T19:52:23.595Z,4.07
2017-11-24T19:54:53.269Z,4.01
2017-11-24T19:57:23.004Z,3.98
2017-11-24T19:59:52.836Z,4.01
2017-11-24T20:02:22.569Z,3.98
2017-11-24T20:04:52.210Z,3.98
2017-11-24T20:07:21.938Z,3.94
2017-11-24T20:09:53.022Z,3.93
2017-11-24T20:14:57.486Z,4.08
2017-11-24T20:17:28.209Z,4.16
2017-11-24T20:22:39.994Z,3.96
2017-11-24T20:25:09.827Z,4.06
2017-11-24T20:27:39.564Z,4.11
2017-11-24T20:30:09.367Z,4.11
2017-11-24T20:32:39.275Z,4.19
2017-11-24T20:35:09.025Z,4.11
2017-11-24T20:37:38.764Z,4.15
2017-11-24T20:40:08.412Z,4.18
2017-11-24T20:42:38.205Z,4.03
2017-11-24T20:45:08.176Z,4.08
2017-11-24T20:47:37.929Z,4.24
2017-11-24T20:50:07.681Z,4.17
2017-11-24T20:52:37.546Z,4.18
2017-11-24T20:55:07.289Z,4.12
2017-11-24T20:57:37.117Z,4.10
2017-11-24T21:00:07.060Z,4.14
2017-11-24T21:02:36.969Z,4.13
2017-11-24T21:05:07.292Z,4.12
2017-11-24T21:07:37.864Z,4.13
2017-11-24T21:10:08.593Z,4.16
2017-11-24T21:12:38.759Z,4.10
2017-11-24T21:15:08.470Z,4.09
2017-11-24T21:17:38.288Z,4.09
2017-11-24T21:20:08.046Z,4.10
2017-11-24T21:22:37.450Z,4.09
2017-11-24T21:25:07.179Z,4.07
2017-11-24T21:27:36.944Z,4.09
2017-11-24T21:30:06.859Z,4.33
2017-11-24T21:32:36.672Z,4.31
2017-11-24T21:35:06.454Z,4.25
2017-11-24T21:37:40.772Z,4.11
2017-11-24T21:40:10.493Z,4.20
2017-11-24T21:42:40.236Z,4.08
2017-11-24T21:45:09.985Z,4.02
2017-11-24T21:47:40.772Z,4.07
2017-11-24T21:50:10.524Z,4.08
2017-11-24T21:52:40.291Z,4.12
2017-11-24T21:55:11.999Z,4.09
2017-11-24T21:57:42.668Z,4.08
2017-11-24T22:00:12.398Z,4.11
2017-11-24T22:02:42.315Z,4.10
2017-11-24T22:05:12.063Z,4.10
2017-11-24T22:07:42.316Z,4.03
2017-11-24T22:10:12.063Z,4.07
2017-11-24T22:12:41.875Z,4.21
2017-11-24T22:15:11.639Z,4.09
2017-11-24T22:17:41.425Z,4.18
2017-11-24T22:20:11.238Z,4.11
2017-11-24T22:22:41.010Z,4.09
2017-11-24T22:25:14.584Z,3.94
2017-11-24T22:27:44.349Z,3.93
2017-11-24T22:30:14.530Z,3.93
2017-11-24T22:32:44.080Z,3.96
2017-11-24T22:35:13.657Z,3.94
2017-11-24T22:37:43.783Z,3.93
2017-11-24T22:40:13.873Z,3.97
2017-11-24T22:42:47.787Z,3.97
2017-11-24T22:45:18.006Z,3.94
2017-11-24T22:47:48.655Z,4.04
2017-11-24T22:50:22.391Z,4.11
2017-11-24T22:52:52.236Z,4.19
2017-11-24T22:55:21.817Z,4.05
2017-11-24T22:57:51.391Z,4.04
2017-11-24T23:00:21.199Z,3.67
2017-11-24T23:02:50.939Z,3.63
2017-11-24T23:05:20.946Z,3.60
2017-11-24T23:07:50.724Z,3.63
2017-11-24T23:10:20.130Z,3.47
2017-11-24T23:12:49.921Z,3.53
2017-11-24T23:15:19.738Z,3.53
2017-11-24T23:17:49.484Z,3.42
2017-11-24T23:20:19.287Z,3.29
2017-11-24T23:22:49.026Z,3.30
2017-11-24T23:25:19.630Z,3.28
2017-11-24T23:27:49.370Z,3.27
2017-11-24T23:30:19.756Z,3.31
2017-11-24T23:32:49.473Z,3.39
2017-11-24T23:35:19.040Z,3.31
2017-11-24T23:37:48.780Z,3.24
2017-11-24T23:40:18.603Z,3.19
2017-11-24T23:42:48.202Z,3.22
2017-11-24T23:45:17.977Z,3.23
2017-11-24T23:47:47.787Z,3.25
2017-11-24T23:50:17.534Z,3.30
2017-11-24T23:52:47.298Z,3.31
2017-11-24T23:55:17.062Z,3.30
2017-11-24T23:57:47.028Z,3.17
